sensor_id;sensor_type;location;lat;lon;timestamp;temperature;humidity
19586;DHT22;9939;49.246;9.106;2023-08-08T00:01:22;14.40;99.90
19586;DHT22;9939;49.246;9.106;2023-08-08T00:03:49;14.20;99.90
19586;DHT22;9939;49.246;9.106;2023-08-08T00:06:16;14.20;99.90
19586;DHT22;9939;49.246;9.106;2023-08-08T00:08:43;14.00;99.90
19586;DHT22;9939;49.246;9.106;2023-08-08T00:11:09;13.80;99.90
19586;DHT22;9939;49.246;9.106;2023-08-08T00:13:36;13.80;99.90
19586;DHT22;9939;49.246;9.106;2023-08-08T00:16:03;13.70;99.90
19586;DHT22;9939;49.246;9.106;2023-08-08T00:18:30;13.60;99.90
19586;DHT22;9939;49.246;9.106;2023-08-08T00:20:56;13.80;99.90
19586;DHT22;9939;49.246;9.106;2023-08-08T00:23:23;13.60;99.90
19586;DHT22;9939;49.246;9.106;2023-08-08T00:25:50;13.50;99.90
19586;DHT22;9939;49.246;9.106;2023-08-08T00:28:17;13.60;99.90
19586;DHT22;9939;49.246;9.106;2023-08-08T00:30:44;13.60;99.90
19586;DHT22;9939;49.246;9.106;2023-08-08T00:33:11;13.30;99.90
19586;DHT22;9939;49.246;9.106;2023-08-08T00:35:38;13.20;99.90
19586;DHT22;9939;49.246;9.106;2023-08-08T00:38:04;13.10;99.90
19586;DHT22;9939;49.246;9.106;2023-08-08T00:40:31;13.10;99.90
19586;DHT22;9939;49.246;9.106;2023-08-08T00:42:58;12.90;99.90
19586;DHT22;9939;49.246;9.106;2023-08-08T00:45:24;12.80;99.90
19586;DHT22;9939;49.246;9.106;2023-08-08T00:47:51;12.90;99.90
19586;DHT22;9939;49.246;9.106;2023-08-08T00:50:18;12.90;99.90
19586;DHT22;9939;49.246;9.106;2023-08-08T00:52:45;12.80;99.90
19586;DHT22;9939;49.246;9.106;2023-08-08T00:55:12;12.80;99.90
19586;DHT22;9939;49.246;9.106;2023-08-08T00:57:41;12.60;99.90
19586;DHT22;9939;49.246;9.106;2023-08-08T01:00:08;12.50;99.90
19586;DHT22;9939;49.246;9.106;2023-08-08T01:02:38;12.50;99.90
19586;DHT22;9939;49.246;9.106;2023-08-08T01:05:06;12.50;99.90
19586;DHT22;9939;49.246;9.106;2023-08-08T01:10:29;12.40;99.90
19586;DHT22;9939;49.246;9.106;2023-08-08T01:13:12;12.60;99.90
19586;DHT22;9939;49.246;9.106;2023-08-08T01:15:41;12.70;99.90
19586;DHT22;9939;49.246;9.106;2023-08-08T01:18:08;12.70;99.90
19586;DHT22;9939;49.246;9.106;2023-08-08T01:20:36;13.00;99.90
19586;DHT22;9939;49.246;9.106;2023-08-08T01:23:09;13.00;99.90
19586;DHT22;9939;49.246;9.106;2023-08-08T01:25:38;12.90;99.90
19586;DHT22;9939;49.246;9.106;2023-08-08T01:28:06;12.90;99.90
19586;DHT22;9939;49.246;9.106;2023-08-08T01:30:33;13.00;99.90
19586;DHT22;9939;49.246;9.106;2023-08-08T01:33:00;12.90;99.90
19586;DHT22;9939;49.246;9.106;2023-08-08T01:35:29;12.90;99.90
19586;DHT22;9939;49.246;9.106;2023-08-08T01:38:31;12.90;99.90
19586;DHT22;9939;49.246;9.106;2023-08-08T01:40:50;13.00;99.90
19586;DHT22;9939;49.246;9.106;2023-08-08T01:43:17;13.10;99.90
19586;DHT22;9939;49.246;9.106;2023-08-08T01:45:44;13.00;99.90
19586;DHT22;9939;49.246;9.106;2023-08-08T01:48:11;13.10;99.90
19586;DHT22;9939;49.246;9.106;2023-08-08T01:50:38;13.10;99.90
19586;DHT22;9939;49.246;9.106;2023-08-08T01:53:05;13.10;99.90
19586;DHT22;9939;49.246;9.106;2023-08-08T01:55:32;13.20;99.90
19586;DHT22;9939;49.246;9.106;2023-08-08T01:57:58;13.40;99.90
19586;DHT22;9939;49.246;9.106;2023-08-08T02:00:25;13.50;99.90
19586;DHT22;9939;49.246;9.106;2023-08-08T02:02:53;13.30;99.90
19586;DHT22;9939;49.246;9.106;2023-08-08T02:05:20;13.40;99.90
19586;DHT22;9939;49.246;9.106;2023-08-08T02:07:47;13.50;99.90
19586;DHT22;9939;49.246;9.106;2023-08-08T02:10:14;13.50;99.90
19586;DHT22;9939;49.246;9.106;2023-08-08T02:12:40;13.20;99.90
19586;DHT22;9939;49.246;9.106;2023-08-08T02:15:07;13.20;99.90
19586;DHT22;9939;49.246;9.106;2023-08-08T02:17:35;12.90;99.90
19586;DHT22;9939;49.246;9.106;2023-08-08T02:20:02;12.80;99.90
19586;DHT22;9939;49.246;9.106;2023-08-08T02:22:29;12.70;99.90
19586;DHT22;9939;49.246;9.106;2023-08-08T02:24:56;12.50;99.90
19586;DHT22;9939;49.246;9.106;2023-08-08T02:27:23;12.50;99.90
19586;DHT22;9939;49.246;9.106;2023-08-08T02:29:50;12.50;99.90
19586;DHT22;9939;49.246;9.106;2023-08-08T02:32:16;12.50;99.90
19586;DHT22;9939;49.246;9.106;2023-08-08T02:34:43;12.50;99.90
19586;DHT22;9939;49.246;9.106;2023-08-08T02:37:12;12.50;99.90
19586;DHT22;9939;49.246;9.106;2023-08-08T02:39:41;12.50;99.90
19586;DHT22;9939;49.246;9.106;2023-08-08T02:42:08;12.50;99.90
19586;DHT22;9939;49.246;9.106;2023-08-08T02:44:34;12.60;99.90
19586;DHT22;9939;49.246;9.106;2023-08-08T02:47:01;12.70;99.90
19586;DHT22;9939;49.246;9.106;2023-08-08T02:49:28;12.70;99.90
19586;DHT22;9939;49.246;9.106;2023-08-08T02:51:57;12.70;99.90
19586;DHT22;9939;49.246;9.106;2023-08-08T02:54:26;12.60;99.90
19586;DHT22;9939;49.246;9.106;2023-08-08T02:56:54;12.30;99.90
19586;DHT22;9939;49.246;9.106;2023-08-08T02:59:21;12.30;99.90
19586;DHT22;9939;49.246;9.106;2023-08-08T03:01:50;12.10;99.90
19586;DHT22;9939;49.246;9.106;2023-08-08T03:04:17;12.00;99.90
19586;DHT22;9939;49.246;9.106;2023-08-08T03:06:44;11.90;99.90
19586;DHT22;9939;49.246;9.106;2023-08-08T03:09:11;11.90;99.90
19586;DHT22;9939;49.246;9.106;2023-08-08T03:11:39;11.80;99.90
19586;DHT22;9939;49.246;9.106;2023-08-08T03:14:12;11.70;99.90
19586;DHT22;9939;49.246;9.106;2023-08-08T03:16:39;11.90;99.90
19586;DHT22;9939;49.246;9.106;2023-08-08T03:19:07;11.90;99.90
19586;DHT22;9939;49.246;9.106;2023-08-08T03:21:35;11.70;99.90
19586;DHT22;9939;49.246;9.106;2023-08-08T03:24:03;11.60;99.90
19586;DHT22;9939;49.246;9.106;2023-08-08T03:26:30;11.60;99.90
19586;DHT22;9939;49.246;9.106;2023-08-08T03:28:56;11.50;99.90
19586;DHT22;9939;49.246;9.106;2023-08-08T03:31:30;11.40;99.90
19586;DHT22;9939;49.246;9.106;2023-08-08T03:33:57;11.40;99.90
19586;DHT22;9939;49.246;9.106;2023-08-08T03:36:24;11.40;99.90
19586;DHT22;9939;49.246;9.106;2023-08-08T03:38:51;11.40;99.90
19586;DHT22;9939;49.246;9.106;2023-08-08T03:41:18;11.40;99.90
19586;DHT22;9939;49.246;9.106;2023-08-08T03:43:44;11.30;99.90
19586;DHT22;9939;49.246;9.106;2023-08-08T03:46:11;11.30;99.90
19586;DHT22;9939;49.246;9.106;2023-08-08T03:48:38;11.20;99.90
19586;DHT22;9939;49.246;9.106;2023-08-08T03:51:05;11.20;99.90
19586;DHT22;9939;49.246;9.106;2023-08-08T03:53:33;11.20;99.90
19586;DHT22;9939;49.246;9.106;2023-08-08T03:56:00;11.30;99.90
19586;DHT22;9939;49.246;9.106;2023-08-08T03:58:27;11.30;99.90
19586;DHT22;9939;49.246;9.106;2023-08-08T04:00:53;11.40;99.90
19586;DHT22;9939;49.246;9.106;2023-08-08T04:03:20;11.40;99.90
19586;DHT22;9939;49.246;9.106;2023-08-08T04:05:47;11.40;99.90
19586;DHT22;9939;49.246;9.106;2023-08-08T04:08:14;11.30;99.90
19586;DHT22;9939;49.246;9.106;2023-08-08T04:10:42;11.30;99.90
19586;DHT22;9939;49.246;9.106;2023-08-08T04:13:09;11.50;99.90
19586;DHT22;9939;49.246;9.106;2023-08-08T04:15:36;11.50;99.90
19586;DHT22;9939;49.246;9.106;2023-08-08T04:18:02;11.50;99.90
19586;DHT22;9939;49.246;9.106;2023-08-08T04:20:30;11.50;99.90
19586;DHT22;9939;49.246;9.106;2023-08-08T04:22:56;11.70;99.90
19586;DHT22;9939;49.246;9.106;2023-08-08T04:25:23;11.70;99.90
19586;DHT22;9939;49.246;9.106;2023-08-08T04:27:50;11.60;99.90
19586;DHT22;9939;49.246;9.106;2023-08-08T04:30:16;11.70;99.90
19586;DHT22;9939;49.246;9.106;2023-08-08T04:32:43;11.70;99.90
19586;DHT22;9939;49.246;9.106;2023-08-08T04:35:10;11.90;99.90
19586;DHT22;9939;49.246;9.106;2023-08-08T04:37:37;11.80;99.90
19586;DHT22;9939;49.246;9.106;2023-08-08T04:40:04;11.70;99.90
19586;DHT22;9939;49.246;9.106;2023-08-08T04:42:31;11.80;99.90
19586;DHT22;9939;49.246;9.106;2023-08-08T04:44:58;11.90;99.90
19586;DHT22;9939;49.246;9.106;2023-08-08T04:47:25;12.10;99.90
19586;DHT22;9939;49.246;9.106;2023-08-08T04:49:51;12.20;99.90
19586;DHT22;9939;49.246;9.106;2023-08-08T04:52:18;12.40;99.90
19586;DHT22;9939;49.246;9.106;2023-08-08T04:54:45;12.60;99.90
19586;DHT22;9939;49.246;9.106;2023-08-08T04:57:11;12.70;99.90
19586;DHT22;9939;49.246;9.106;2023-08-08T04:59:38;12.70;99.90
19586;DHT22;9939;49.246;9.106;2023-08-08T05:02:05;12.80;99.90
19586;DHT22;9939;49.246;9.106;2023-08-08T05:04:32;13.00;99.90
19586;DHT22;9939;49.246;9.106;2023-08-08T05:06:59;13.20;99.90
19586;DHT22;9939;49.246;9.106;2023-08-08T05:09:25;13.30;99.90
19586;DHT22;9939;49.246;9.106;2023-08-08T05:11:55;13.40;99.90
19586;DHT22;9939;49.246;9.106;2023-08-08T05:14:22;13.50;99.90
19586;DHT22;9939;49.246;9.106;2023-08-08T05:16:48;13.70;99.90
19586;DHT22;9939;49.246;9.106;2023-08-08T05:19:15;13.80;99.90
19586;DHT22;9939;49.246;9.106;2023-08-08T05:21:42;13.90;99.90
19586;DHT22;9939;49.246;9.106;2023-08-08T05:24:09;13.90;99.90
19586;DHT22;9939;49.246;9.106;2023-08-08T05:26:36;14.30;99.90
19586;DHT22;9939;49.246;9.106;2023-08-08T05:29:02;14.30;99.90
19586;DHT22;9939;49.246;9.106;2023-08-08T05:31:29;14.40;99.90
19586;DHT22;9939;49.246;9.106;2023-08-08T05:33:56;14.40;99.90
19586;DHT22;9939;49.246;9.106;2023-08-08T05:36:23;14.50;99.90
19586;DHT22;9939;49.246;9.106;2023-08-08T05:38:50;14.70;99.90
19586;DHT22;9939;49.246;9.106;2023-08-08T05:41:16;14.80;99.90
19586;DHT22;9939;49.246;9.106;2023-08-08T05:43:43;14.90;99.90
19586;DHT22;9939;49.246;9.106;2023-08-08T05:46:10;15.20;99.90
19586;DHT22;9939;49.246;9.106;2023-08-08T05:48:37;15.40;99.90
19586;DHT22;9939;49.246;9.106;2023-08-08T05:51:04;15.40;99.90
19586;DHT22;9939;49.246;9.106;2023-08-08T05:53:31;15.70;99.90
19586;DHT22;9939;49.246;9.106;2023-08-08T05:55:59;15.90;99.90
19586;DHT22;9939;49.246;9.106;2023-08-08T05:58:26;16.20;99.90
19586;DHT22;9939;49.246;9.106;2023-08-08T06:00:52;16.40;99.90
19586;DHT22;9939;49.246;9.106;2023-08-08T06:03:19;16.40;99.90
19586;DHT22;9939;49.246;9.106;2023-08-08T06:05:46;16.50;99.90
19586;DHT22;9939;49.246;9.106;2023-08-08T06:08:13;16.50;99.90
19586;DHT22;9939;49.246;9.106;2023-08-08T06:10:42;16.50;99.90
19586;DHT22;9939;49.246;9.106;2023-08-08T06:13:09;16.40;99.90
19586;DHT22;9939;49.246;9.106;2023-08-08T06:15:35;16.70;99.90
19586;DHT22;9939;49.246;9.106;2023-08-08T06:18:02;16.70;99.90
19586;DHT22;9939;49.246;9.106;2023-08-08T06:20:29;16.30;99.90
19586;DHT22;9939;49.246;9.106;2023-08-08T06:22:56;15.80;99.90
19586;DHT22;9939;49.246;9.106;2023-08-08T06:25:23;15.70;99.90
19586;DHT22;9939;49.246;9.106;2023-08-08T06:27:49;15.90;99.90
19586;DHT22;9939;49.246;9.106;2023-08-08T06:30:16;16.20;99.90
19586;DHT22;9939;49.246;9.106;2023-08-08T06:32:43;16.50;99.90
19586;DHT22;9939;49.246;9.106;2023-08-08T06:35:10;16.40;99.90
19586;DHT22;9939;49.246;9.106;2023-08-08T06:37:39;16.60;99.90
19586;DHT22;9939;49.246;9.106;2023-08-08T06:40:05;16.70;99.90
19586;DHT22;9939;49.246;9.106;2023-08-08T06:42:33;17.00;99.90
19586;DHT22;9939;49.246;9.106;2023-08-08T06:45:01;17.20;99.90
19586;DHT22;9939;49.246;9.106;2023-08-08T06:47:28;17.20;99.90
19586;DHT22;9939;49.246;9.106;2023-08-08T06:49:54;17.30;99.90
19586;DHT22;9939;49.246;9.106;2023-08-08T06:52:21;17.20;99.90
19586;DHT22;9939;49.246;9.106;2023-08-08T06:54:48;17.10;99.90
19586;DHT22;9939;49.246;9.106;2023-08-08T06:57:15;17.30;99.90
19586;DHT22;9939;49.246;9.106;2023-08-08T06:59:41;17.40;99.90
19586;DHT22;9939;49.246;9.106;2023-08-08T07:02:09;17.30;99.90
19586;DHT22;9939;49.246;9.106;2023-08-08T07:04:36;17.30;99.90
19586;DHT22;9939;49.246;9.106;2023-08-08T07:07:03;17.30;99.90
19586;DHT22;9939;49.246;9.106;2023-08-08T07:09:29;17.30;99.90
19586;DHT22;9939;49.246;9.106;2023-08-08T07:11:56;17.50;99.90
19586;DHT22;9939;49.246;9.106;2023-08-08T07:14:24;17.50;99.90
19586;DHT22;9939;49.246;9.106;2023-08-08T07:16:50;17.80;99.90
19586;DHT22;9939;49.246;9.106;2023-08-08T07:19:17;18.00;99.90
19586;DHT22;9939;49.246;9.106;2023-08-08T07:21:45;18.10;99.90
19586;DHT22;9939;49.246;9.106;2023-08-08T07:24:13;18.10;99.90
19586;DHT22;9939;49.246;9.106;2023-08-08T07:26:39;18.30;99.90
19586;DHT22;9939;49.246;9.106;2023-08-08T07:29:06;18.50;99.90
19586;DHT22;9939;49.246;9.106;2023-08-08T07:31:33;18.30;99.90
19586;DHT22;9939;49.246;9.106;2023-08-08T07:34:00;18.20;99.90
19586;DHT22;9939;49.246;9.106;2023-08-08T07:36:26;18.10;99.90
19586;DHT22;9939;49.246;9.106;2023-08-08T07:38:53;18.20;99.90
19586;DHT22;9939;49.246;9.106;2023-08-08T07:41:26;18.00;99.90
19586;DHT22;9939;49.246;9.106;2023-08-08T07:43:53;18.20;99.90
19586;DHT22;9939;49.246;9.106;2023-08-08T07:46:20;18.30;99.90
19586;DHT22;9939;49.246;9.106;2023-08-08T07:48:46;18.40;99.90
19586;DHT22;9939;49.246;9.106;2023-08-08T07:51:13;18.50;99.90
19586;DHT22;9939;49.246;9.106;2023-08-08T07:53:40;18.60;99.90
19586;DHT22;9939;49.246;9.106;2023-08-08T07:56:06;19.00;99.90
19586;DHT22;9939;49.246;9.106;2023-08-08T07:58:33;19.30;99.90
19586;DHT22;9939;49.246;9.106;2023-08-08T08:01:00;19.50;99.90
19586;DHT22;9939;49.246;9.106;2023-08-08T08:03:27;19.60;99.90
19586;DHT22;9939;49.246;9.106;2023-08-08T08:05:54;19.80;99.90
19586;DHT22;9939;49.246;9.106;2023-08-08T08:08:20;20.10;99.90
19586;DHT22;9939;49.246;9.106;2023-08-08T08:10:48;20.40;99.90
19586;DHT22;9939;49.246;9.106;2023-08-08T08:13:15;20.60;99.90
19586;DHT22;9939;49.246;9.106;2023-08-08T08:15:42;20.40;99.90
19586;DHT22;9939;49.246;9.106;2023-08-08T08:18:09;20.10;99.90
19586;DHT22;9939;49.246;9.106;2023-08-08T08:20:38;20.10;99.90
19586;DHT22;9939;49.246;9.106;2023-08-08T08:23:04;20.10;99.90
19586;DHT22;9939;49.246;9.106;2023-08-08T08:25:31;19.90;99.90
19586;DHT22;9939;49.246;9.106;2023-08-08T08:27:58;20.10;99.90
19586;DHT22;9939;49.246;9.106;2023-08-08T08:30:25;20.40;99.90
19586;DHT22;9939;49.246;9.106;2023-08-08T08:32:53;20.30;99.90
19586;DHT22;9939;49.246;9.106;2023-08-08T08:35:20;20.40;99.90
19586;DHT22;9939;49.246;9.106;2023-08-08T08:37:47;20.50;99.90
19586;DHT22;9939;49.246;9.106;2023-08-08T08:40:14;20.90;99.90
19586;DHT22;9939;49.246;9.106;2023-08-08T08:42:40;21.20;99.90
19586;DHT22;9939;49.246;9.106;2023-08-08T08:45:08;20.70;99.90
19586;DHT22;9939;49.246;9.106;2023-08-08T08:47:36;21.10;99.90
19586;DHT22;9939;49.246;9.106;2023-08-08T08:50:03;21.50;99.90
19586;DHT22;9939;49.246;9.106;2023-08-08T08:52:30;21.70;99.90
19586;DHT22;9939;49.246;9.106;2023-08-08T08:54:57;21.90;99.90
19586;DHT22;9939;49.246;9.106;2023-08-08T08:57:24;21.50;99.90
19586;DHT22;9939;49.246;9.106;2023-08-08T08:59:51;21.30;99.90
19586;DHT22;9939;49.246;9.106;2023-08-08T09:02:18;21.20;99.90
19586;DHT22;9939;49.246;9.106;2023-08-08T09:04:45;20.90;99.90
19586;DHT22;9939;49.246;9.106;2023-08-08T09:07:12;21.00;99.90
19586;DHT22;9939;49.246;9.106;2023-08-08T09:09:40;21.70;99.90
19586;DHT22;9939;49.246;9.106;2023-08-08T09:12:08;22.20;99.90
19586;DHT22;9939;49.246;9.106;2023-08-08T09:14:39;21.90;99.90
19586;DHT22;9939;49.246;9.106;2023-08-08T09:17:09;21.90;99.90
19586;DHT22;9939;49.246;9.106;2023-08-08T09:19:37;22.40;99.90
19586;DHT22;9939;49.246;9.106;2023-08-08T09:22:04;22.90;99.90
19586;DHT22;9939;49.246;9.106;2023-08-08T09:24:31;23.40;99.90
19586;DHT22;9939;49.246;9.106;2023-08-08T09:26:57;22.90;99.90
19586;DHT22;9939;49.246;9.106;2023-08-08T09:29:24;23.20;99.90
19586;DHT22;9939;49.246;9.106;2023-08-08T09:31:51;23.50;99.90
19586;DHT22;9939;49.246;9.106;2023-08-08T09:34:18;23.30;99.90
19586;DHT22;9939;49.246;9.106;2023-08-08T09:36:44;22.60;99.90
19586;DHT22;9939;49.246;9.106;2023-08-08T09:39:11;23.10;99.90
19586;DHT22;9939;49.246;9.106;2023-08-08T09:41:38;23.20;99.90
19586;DHT22;9939;49.246;9.106;2023-08-08T09:44:05;23.20;99.90
19586;DHT22;9939;49.246;9.106;2023-08-08T09:46:32;24.00;99.90
19586;DHT22;9939;49.246;9.106;2023-08-08T09:48:59;23.70;99.90
19586;DHT22;9939;49.246;9.106;2023-08-08T09:51:26;23.60;99.90
19586;DHT22;9939;49.246;9.106;2023-08-08T09:53:54;24.00;99.90
19586;DHT22;9939;49.246;9.106;2023-08-08T09:56:23;23.20;99.90
19586;DHT22;9939;49.246;9.106;2023-08-08T09:58:50;23.70;99.90
19586;DHT22;9939;49.246;9.106;2023-08-08T10:01:17;24.00;99.90
19586;DHT22;9939;49.246;9.106;2023-08-08T10:03:45;24.60;99.90
19586;DHT22;9939;49.246;9.106;2023-08-08T10:06:13;24.90;99.90
19586;DHT22;9939;49.246;9.106;2023-08-08T10:08:39;25.80;99.90
19586;DHT22;9939;49.246;9.106;2023-08-08T10:11:06;26.80;99.90
19586;DHT22;9939;49.246;9.106;2023-08-08T10:13:35;28.00;99.90
19586;DHT22;9939;49.246;9.106;2023-08-08T10:16:08;28.20;99.90
19586;DHT22;9939;49.246;9.106;2023-08-08T10:18:36;26.80;99.90
19586;DHT22;9939;49.246;9.106;2023-08-08T10:21:06;26.20;99.90
19586;DHT22;9939;49.246;9.106;2023-08-08T10:23:36;25.90;99.90
19586;DHT22;9939;49.246;9.106;2023-08-08T10:26:04;25.50;99.90
19586;DHT22;9939;49.246;9.106;2023-08-08T10:28:31;24.80;99.90
19586;DHT22;9939;49.246;9.106;2023-08-08T10:30:59;25.10;99.90
19586;DHT22;9939;49.246;9.106;2023-08-08T10:33:27;24.80;99.90
19586;DHT22;9939;49.246;9.106;2023-08-08T10:35:56;25.40;99.90
19586;DHT22;9939;49.246;9.106;2023-08-08T10:38:26;25.60;99.90
19586;DHT22;9939;49.246;9.106;2023-08-08T10:41:04;25.80;99.90
19586;DHT22;9939;49.246;9.106;2023-08-08T10:43:31;26.00;99.90
19586;DHT22;9939;49.246;9.106;2023-08-08T10:46:01;26.20;99.90
19586;DHT22;9939;49.246;9.106;2023-08-08T10:51:44;27.20;99.90
19586;DHT22;9939;49.246;9.106;2023-08-08T10:54:16;27.50;99.90
19586;DHT22;9939;49.246;9.106;2023-08-08T10:56:47;26.90;99.90
19586;DHT22;9939;49.246;9.106;2023-08-08T10:59:18;25.80;99.90
19586;DHT22;9939;49.246;9.106;2023-08-08T11:01:48;26.00;99.90
19586;DHT22;9939;49.246;9.106;2023-08-08T11:04:17;26.10;99.90
19586;DHT22;9939;49.246;9.106;2023-08-08T11:06:44;26.50;99.90
19586;DHT22;9939;49.246;9.106;2023-08-08T11:09:11;26.90;99.90
19586;DHT22;9939;49.246;9.106;2023-08-08T11:11:42;25.80;99.90
19586;DHT22;9939;49.246;9.106;2023-08-08T11:14:09;26.10;99.90
19586;DHT22;9939;49.246;9.106;2023-08-08T11:16:37;26.20;99.90
19586;DHT22;9939;49.246;9.106;2023-08-08T11:19:03;26.70;99.90
19586;DHT22;9939;49.246;9.106;2023-08-08T11:21:33;26.80;99.90
19586;DHT22;9939;49.246;9.106;2023-08-08T11:23:59;26.60;99.70
19586;DHT22;9939;49.246;9.106;2023-08-08T11:26:26;26.10;99.90
19586;DHT22;9939;49.246;9.106;2023-08-08T11:28:54;25.90;99.90
19586;DHT22;9939;49.246;9.106;2023-08-08T11:31:20;26.70;99.90
19586;DHT22;9939;49.246;9.106;2023-08-08T11:33:48;26.20;99.90
19586;DHT22;9939;49.246;9.106;2023-08-08T11:36:15;26.00;99.90
19586;DHT22;9939;49.246;9.106;2023-08-08T11:38:42;26.20;99.90
19586;DHT22;9939;49.246;9.106;2023-08-08T11:41:13;26.00;99.90
19586;DHT22;9939;49.246;9.106;2023-08-08T11:43:40;25.90;99.90
19586;DHT22;9939;49.246;9.106;2023-08-08T11:46:13;25.40;99.90
19586;DHT22;9939;49.246;9.106;2023-08-08T11:48:41;25.30;99.90
19586;DHT22;9939;49.246;9.106;2023-08-08T11:51:08;25.20;99.90
19586;DHT22;9939;49.246;9.106;2023-08-08T11:53:34;24.20;99.90
19586;DHT22;9939;49.246;9.106;2023-08-08T11:56:02;24.30;99.90
19586;DHT22;9939;49.246;9.106;2023-08-08T11:58:30;24.60;99.90
19586;DHT22;9939;49.246;9.106;2023-08-08T12:00:57;24.60;99.90
19586;DHT22;9939;49.246;9.106;2023-08-08T12:03:27;24.70;99.90
19586;DHT22;9939;49.246;9.106;2023-08-08T12:05:54;24.70;99.90
19586;DHT22;9939;49.246;9.106;2023-08-08T12:08:21;24.60;99.90
19586;DHT22;9939;49.246;9.106;2023-08-08T12:10:48;24.60;99.90
19586;DHT22;9939;49.246;9.106;2023-08-08T12:13:20;25.00;99.90
19586;DHT22;9939;49.246;9.106;2023-08-08T12:15:48;25.00;99.90
19586;DHT22;9939;49.246;9.106;2023-08-08T12:18:16;24.50;99.90
19586;DHT22;9939;49.246;9.106;2023-08-08T12:20:44;24.40;99.90
19586;DHT22;9939;49.246;9.106;2023-08-08T12:23:11;24.60;99.90
19586;DHT22;9939;49.246;9.106;2023-08-08T12:25:38;24.20;99.90
19586;DHT22;9939;49.246;9.106;2023-08-08T12:28:05;24.20;99.90
19586;DHT22;9939;49.246;9.106;2023-08-08T12:30:32;24.70;99.90
19586;DHT22;9939;49.246;9.106;2023-08-08T12:32:59;25.00;99.90
19586;DHT22;9939;49.246;9.106;2023-08-08T12:35:25;25.20;98.90
19586;DHT22;9939;49.246;9.106;2023-08-08T12:37:53;25.10;99.30
19586;DHT22;9939;49.246;9.106;2023-08-08T12:40:20;26.00;97.90
19586;DHT22;9939;49.246;9.106;2023-08-08T12:42:47;26.20;97.90
19586;DHT22;9939;49.246;9.106;2023-08-08T12:45:14;26.80;97.50
19586;DHT22;9939;49.246;9.106;2023-08-08T12:47:41;27.10;97.00
19586;DHT22;9939;49.246;9.106;2023-08-08T12:50:08;26.10;97.00
19586;DHT22;9939;49.246;9.106;2023-08-08T12:52:34;27.00;97.50
19586;DHT22;9939;49.246;9.106;2023-08-08T12:55:02;27.40;96.60
19586;DHT22;9939;49.246;9.106;2023-08-08T12:57:29;29.40;95.70
19586;DHT22;9939;49.246;9.106;2023-08-08T12:59:56;32.20;92.70
19586;DHT22;9939;49.246;9.106;2023-08-08T13:02:22;30.40;90.80
19586;DHT22;9939;49.246;9.106;2023-08-08T13:04:49;30.30;90.30
19586;DHT22;9939;49.246;9.106;2023-08-08T13:07:16;29.10;91.40
19586;DHT22;9939;49.246;9.106;2023-08-08T13:09:43;28.10;92.80
19586;DHT22;9939;49.246;9.106;2023-08-08T13:12:09;29.00;92.80
19586;DHT22;9939;49.246;9.106;2023-08-08T13:14:36;31.10;89.90
19586;DHT22;9939;49.246;9.106;2023-08-08T13:17:03;31.50;88.00
19586;DHT22;9939;49.246;9.106;2023-08-08T13:19:30;32.60;85.30
19586;DHT22;9939;49.246;9.106;2023-08-08T13:21:57;32.30;84.80
19586;DHT22;9939;49.246;9.106;2023-08-08T13:24:24;31.70;85.50
19586;DHT22;9939;49.246;9.106;2023-08-08T13:26:51;29.80;86.20
19586;DHT22;9939;49.246;9.106;2023-08-08T13:29:18;30.80;86.30
19586;DHT22;9939;49.246;9.106;2023-08-08T13:31:45;32.50;83.10
19586;DHT22;9939;49.246;9.106;2023-08-08T13:34:12;33.30;81.70
19586;DHT22;9939;49.246;9.106;2023-08-08T13:36:38;33.20;79.70
19586;DHT22;9939;49.246;9.106;2023-08-08T13:39:05;32.90;79.00
19586;DHT22;9939;49.246;9.106;2023-08-08T13:41:32;30.50;82.80
19586;DHT22;9939;49.246;9.106;2023-08-08T13:43:59;29.20;85.90
19586;DHT22;9939;49.246;9.106;2023-08-08T13:46:25;28.60;88.20
19586;DHT22;9939;49.246;9.106;2023-08-08T13:48:52;28.60;86.70
19586;DHT22;9939;49.246;9.106;2023-08-08T13:51:19;27.30;89.90
19586;DHT22;9939;49.246;9.106;2023-08-08T13:53:46;27.10;90.20
19586;DHT22;9939;49.246;9.106;2023-08-08T13:56:14;27.30;90.10
19586;DHT22;9939;49.246;9.106;2023-08-08T13:58:41;27.70;90.10
19586;DHT22;9939;49.246;9.106;2023-08-08T14:01:08;27.00;90.40
19586;DHT22;9939;49.246;9.106;2023-08-08T14:03:35;28.20;90.20
19586;DHT22;9939;49.246;9.106;2023-08-08T14:06:02;28.80;89.90
19586;DHT22;9939;49.246;9.106;2023-08-08T14:08:28;28.70;89.90
19586;DHT22;9939;49.246;9.106;2023-08-08T14:10:55;27.40;90.80
19586;DHT22;9939;49.246;9.106;2023-08-08T14:13:22;26.40;91.90
19586;DHT22;9939;49.246;9.106;2023-08-08T14:15:49;26.70;90.60
19586;DHT22;9939;49.246;9.106;2023-08-08T14:18:18;27.00;90.60
19586;DHT22;9939;49.246;9.106;2023-08-08T14:20:44;29.80;87.40
19586;DHT22;9939;49.246;9.106;2023-08-08T14:23:11;30.30;84.00
19586;DHT22;9939;49.246;9.106;2023-08-08T14:25:38;30.00;85.20
19586;DHT22;9939;49.246;9.106;2023-08-08T14:28:04;28.90;86.40
19586;DHT22;9939;49.246;9.106;2023-08-08T14:30:31;27.60;88.20
19586;DHT22;9939;49.246;9.106;2023-08-08T14:32:58;27.70;88.50
19586;DHT22;9939;49.246;9.106;2023-08-08T14:35:25;29.10;85.50
19586;DHT22;9939;49.246;9.106;2023-08-08T14:37:52;28.80;87.40
19586;DHT22;9939;49.246;9.106;2023-08-08T14:40:18;29.40;85.10
19586;DHT22;9939;49.246;9.106;2023-08-08T14:42:45;29.00;87.10
19586;DHT22;9939;49.246;9.106;2023-08-08T14:45:12;28.50;87.70
19586;DHT22;9939;49.246;9.106;2023-08-08T14:47:39;28.60;87.70
19586;DHT22;9939;49.246;9.106;2023-08-08T14:50:05;28.20;88.80
19586;DHT22;9939;49.246;9.106;2023-08-08T14:52:32;27.90;88.80
19586;DHT22;9939;49.246;9.106;2023-08-08T14:54:59;28.60;88.50
19586;DHT22;9939;49.246;9.106;2023-08-08T14:57:26;28.90;86.90
19586;DHT22;9939;49.246;9.106;2023-08-08T14:59:52;30.00;85.70
19586;DHT22;9939;49.246;9.106;2023-08-08T15:02:19;30.20;83.20
19586;DHT22;9939;49.246;9.106;2023-08-08T15:04:46;30.30;84.20
19586;DHT22;9939;49.246;9.106;2023-08-08T15:07:12;29.90;84.50
19586;DHT22;9939;49.246;9.106;2023-08-08T15:09:39;31.30;83.00
19586;DHT22;9939;49.246;9.106;2023-08-08T15:12:06;31.60;82.20
19586;DHT22;9939;49.246;9.106;2023-08-08T15:14:33;31.40;81.70
19586;DHT22;9939;49.246;9.106;2023-08-08T15:16:59;29.90;83.90
19586;DHT22;9939;49.246;9.106;2023-08-08T15:19:27;29.10;86.20
19586;DHT22;9939;49.246;9.106;2023-08-08T15:21:53;30.90;83.40
19586;DHT22;9939;49.246;9.106;2023-08-08T15:24:20;31.70;81.10
19586;DHT22;9939;49.246;9.106;2023-08-08T15:26:47;29.40;84.10
19586;DHT22;9939;49.246;9.106;2023-08-08T15:29:14;28.30;87.40
19586;DHT22;9939;49.246;9.106;2023-08-08T15:31:40;27.20;88.90
19586;DHT22;9939;49.246;9.106;2023-08-08T15:34:07;27.00;90.10
19586;DHT22;9939;49.246;9.106;2023-08-08T15:36:34;27.50;90.20
19586;DHT22;9939;49.246;9.106;2023-08-08T15:39:01;29.00;87.30
19586;DHT22;9939;49.246;9.106;2023-08-08T15:41:28;28.20;87.80
19586;DHT22;9939;49.246;9.106;2023-08-08T15:43:54;27.40;90.00
19586;DHT22;9939;49.246;9.106;2023-08-08T15:46:21;26.10;91.20
19586;DHT22;9939;49.246;9.106;2023-08-08T15:48:48;25.30;92.40
19586;DHT22;9939;49.246;9.106;2023-08-08T15:51:15;24.60;92.60